Pagrindinis puslapis
METAR-TAF:

METAR-TAF

Oro uostai :

Barter Island, Aliaska, Jungtinės Amerikos Valstijos

platuma: 70-08-02N, ilguma: 143-34-37W, Aukštis: 2 m

Dabartinis oras

Ataskaita buvo paskelbta 11 minutes, ne 20:52 UTC
Vėjas 26 kt iš Vakarų
Temperatūra -4°C
Drėgmė 80%
Slėgis 1014 hPa
Matomumas: 16.1 km
Apsiniaukę ne aukštis 5500 ft

METAR: PABA 282052Z AUTO 27026KT 10SM OVC055 M04/M07 A2994 RMK AO2 PK WND 27031/2052 SNE1958 SLP146 P0000 60000 T10391072 53014 FZRANO

Laikas: 13:03 (21:03 UTC)


TAF: trūkstamas

Orai ataskaitas ir orų prognozės (METAR, TAF).

turimą stotys yra geltonos ir raudonos taškus žemėlapyje.

Perkelti pele per norėdami pamatyti stoties vardą.

Tada spustelėkite, norėdami matyti oro stebėjimo ir prognozės.

Norėdami pakeisti žemėlapį: spustelėkite ant žalios mygtukų su juodo kryžiaus žemyn,; žalią mygtuką su brūkšneliu, jei norite nutolinti; arba žalių rodyklių gretimoms žemėlapius.


METAR-TAF: